Time;durP1;ratioP1;P1;durP2;ratioP2;P2;SDS_P1;SDS_P2;PMS_P1;PMS_P2;Temp;Humidity;BMP_temperature;BMP_pressure;BME280_temperature;BME280_humidity;BME280_pressure;Samples;Min_cycle;Max_cycle;Signal;HPM_P1;HPM_P2
2022/04/30 00:02:13;;;;;;;6.18;4.03;;;;;;;10.80;73.32;101088.47;5589007;31;32692;-64
2022/04/30 00:05:17;;;;;;;8.27;4.72;;;;;;;10.80;73.66;101091.09;5589951;31;34385;-64
2022/04/30 00:08:20;;;;;;;10.05;4.40;;;;;;;10.74;74.68;101099.69;5589379;31;32586;-64
2022/04/30 00:11:23;;;;;;;8.13;4.70;;;;;;;10.63;76.63;101091.94;5589883;31;34687;-64
2022/04/30 00:14:27;;;;;;;8.07;4.70;;;;;;;10.58;76.54;101088.06;5589002;31;34084;-64
2022/04/30 00:17:29;;;;;;;7.80;4.50;;;;;;;10.36;77.69;101100.78;5589180;31;32641;-63
2022/04/30 00:20:36;;;;;;;9.88;5.10;;;;;;;10.28;79.86;101095.38;5589089;31;34203;-64
2022/04/30 00:23:39;;;;;;;10.18;4.68;;;;;;;10.15;81.47;101102.81;5589549;31;34292;-64
2022/04/30 00:26:42;;;;;;;9.68;5.28;;;;;;;10.10;82.27;101091.00;5588982;31;34153;-64
2022/04/30 00:29:45;;;;;;;10.77;5.40;;;;;;;9.88;83.44;101093.03;5589161;31;33209;-64
2022/04/30 00:32:48;;;;;;;8.20;5.37;;;;;;;9.87;84.54;101090.56;5590144;31;34050;-64
2022/04/30 00:35:52;;;;;;;9.02;5.20;;;;;;;9.74;84.78;101097.97;5589658;31;33982;-64
2022/04/30 00:38:55;;;;;;;7.60;5.28;;;;;;;9.68;85.79;101091.47;5589609;31;34560;-64
2022/04/30 00:41:58;;;;;;;9.95;5.20;;;;;;;9.60;86.06;101091.31;5588911;31;34167;-64
2022/04/30 00:45:01;;;;;;;7.50;4.80;;;;;;;9.73;86.73;101096.31;5589367;31;34306;-64
2022/04/30 00:48:07;;;;;;;8.60;4.87;;;;;;;9.77;88.14;101101.19;5588986;31;34094;-64
2022/04/30 00:51:11;;;;;;;7.72;5.40;;;;;;;9.68;88.28;101088.81;5589475;31;33925;-64
2022/04/30 00:54:18;;;;;;;8.35;5.20;;;;;;;9.60;90.59;101099.28;5589466;31;34128;-64
2022/04/30 00:57:25;;;;;;;9.73;5.15;;;;;;;9.54;89.45;101097.19;5589641;31;34287;-64
2022/04/30 01:00:29;;;;;;;9.43;5.32;;;;;;;9.32;91.80;101100.19;5589467;31;34045;-64
2022/04/30 01:03:34;;;;;;;9.70;4.72;;;;;;;9.29;91.80;101103.12;5588741;31;32439;-64
2022/04/30 01:06:40;;;;;;;8.43;5.15;;;;;;;9.30;91.43;101102.97;5589648;31;35177;-64
2022/04/30 01:09:48;;;;;;;7.97;4.72;;;;;;;9.18;91.79;101103.25;5589393;31;34416;-63
2022/04/30 01:12:52;;;;;;;8.77;5.45;;;;;;;9.15;91.05;101102.56;5589499;31;34031;-63
2022/04/30 01:15:58;;;;;;;10.80;5.80;;;;;;;9.10;90.41;101104.78;5589183;31;34119;-65
2022/04/30 01:19:02;;;;;;;8.55;4.80;;;;;;;9.10;88.61;101096.03;5589439;31;35397;-64
2022/04/30 01:22:12;;;;;;;6.87;4.82;;;;;;;9.09;88.92;101089.06;5589182;31;34679;-63
2022/04/30 01:25:16;;;;;;;7.68;5.55;;;;;;;9.13;87.15;101091.28;5588590;31;33522;-65
2022/04/30 01:28:19;;;;;;;14.38;5.55;;;;;;;8.97;88.95;101091.03;5589083;31;34246;-64
2022/04/30 01:38:05;;;;;;;8.18;5.18;;;;;;;8.86;90.60;101085.84;5588965;31;33987;-64
2022/04/30 01:41:08;;;;;;;8.00;5.25;;;;;;;8.68;91.30;101091.00;5588160;31;32481;-64
2022/04/30 01:44:11;;;;;;;8.63;5.28;;;;;;;8.67;92.20;101080.56;5589058;31;34669;-64
2022/04/30 01:47:17;;;;;;;8.77;5.50;;;;;;;8.49;92.92;101077.78;5588539;31;34122;-64
2022/04/30 01:50:21;;;;;;;7.62;5.47;;;;;;;8.40;94.08;101078.59;5588617;31;33914;-63
2022/04/30 01:53:23;;;;;;;7.57;5.12;;;;;;;8.28;94.28;101069.91;5588691;31;34570;-63
2022/04/30 01:56:26;;;;;;;8.80;5.47;;;;;;;8.26;94.60;101068.38;5588554;31;33915;-63
2022/04/30 01:59:29;;;;;;;9.73;5.78;;;;;;;8.39;93.47;101057.56;5589757;31;33917;-65
2022/04/30 02:02:36;;;;;;;9.85;5.55;;;;;;;8.75;91.08;101064.00;5591111;31;33911;-64
2022/04/30 02:05:41;;;;;;;7.28;4.87;;;;;;;8.57;91.26;101061.19;5589993;31;32924;-64
2022/04/30 02:08:43;;;;;;;7.78;5.07;;;;;;;8.41;91.86;101059.12;5590404;31;32312;-63
2022/04/30 02:11:47;;;;;;;8.90;5.20;;;;;;;8.24;93.16;101051.81;5590840;31;34159;-63
2022/04/30 02:14:52;;;;;;;8.85;5.07;;;;;;;8.13;93.61;101052.75;5590874;31;33927;-63
2022/04/30 02:17:56;;;;;;;7.82;4.90;;;;;;;8.35;89.38;101066.75;5590856;31;34096;-64
2022/04/30 02:20:59;;;;;;;5.97;4.65;;;;;;;8.23;88.79;101052.78;5589753;31;32940;-63
2022/04/30 02:24:03;;;;;;;5.95;4.72;;;;;;;8.34;87.61;101054.50;5590713;31;33983;-63
2022/04/30 02:27:05;;;;;;;8.20;4.50;;;;;;;8.21;89.49;101050.28;5589999;31;32781;-63
2022/04/30 02:30:17;;;;;;;6.15;4.70;;;;;;;8.03;89.32;101048.44;5586773;31;136689;-64
2022/04/30 02:33:21;;;;;;;7.70;4.70;;;;;;;7.91;90.25;101052.16;5589820;31;34410;-63
2022/04/30 02:36:29;;;;;;;6.72;4.30;;;;;;;8.07;90.35;101055.13;5589984;31;32447;-63
2022/04/30 02:39:32;;;;;;;7.25;4.70;;;;;;;8.20;90.35;101051.25;5590929;31;33869;-64
2022/04/30 02:42:34;;;;;;;7.12;4.68;;;;;;;8.32;89.36;101051.19;5590669;31;33960;-64
2022/04/30 02:45:39;;;;;;;6.43;4.68;;;;;;;8.30;89.61;101051.31;5590705;31;34015;-64
2022/04/30 02:48:42;;;;;;;8.32;5.03;;;;;;;8.32;90.48;101044.09;5590514;31;34144;-64
2022/04/30 02:51:45;;;;;;;13.02;5.70;;;;;;;8.10;91.88;101045.12;5589584;31;33981;-64
2022/04/30 02:54:48;;;;;;;9.35;5.37;;;;;;;8.06;95.69;101041.06;5590622;31;34164;-64
2022/04/30 03:01:14;;;;;;;8.35;5.62;;;;;;;8.09;97.59;101038.16;5590434;31;34116;-64
2022/04/30 03:04:18;;;;;;;8.73;5.50;;;;;;;8.09;98.47;101032.03;5590668;31;33881;-64
2022/04/30 03:07:22;;;;;;;8.65;5.20;;;;;;;8.07;98.44;101032.19;5590792;31;33932;-64
2022/04/30 03:10:25;;;;;;;7.68;5.07;;;;;;;7.96;98.00;101026.16;5589221;31;32437;-64
2022/04/30 03:13:28;;;;;;;6.93;4.70;;;;;;;7.90;97.42;101024.88;5576797;31;33305;-64
2022/04/30 03:23:25;;;;;;;6.65;4.53;;;;;;;7.99;95.67;101033.84;5590440;31;33942;-65
2022/04/30 03:26:28;;;;;;;11.90;4.53;;;;;;;7.90;95.72;101032.81;5590677;31;34617;-65
2022/04/30 03:29:32;;;;;;;8.23;4.45;;;;;;;7.74;96.84;101036.00;5589576;31;32887;-65
2022/04/30 03:32:34;;;;;;;7.05;4.22;;;;;;;7.78;96.62;101040.03;5590216;31;34582;-64
2022/04/30 03:35:38;;;;;;;7.68;4.05;;;;;;;7.77;96.44;101043.63;5590233;31;34160;-64
2022/04/30 03:38:42;;;;;;;6.72;4.40;;;;;;;7.84;95.05;101036.03;5589513;31;32437;-65
2022/04/30 03:41:44;;;;;;;6.65;3.97;;;;;;;7.94;95.82;101046.63;5590124;31;33905;-64
2022/04/30 03:44:49;;;;;;;9.52;4.47;;;;;;;7.85;95.25;101040.31;5590001;31;34455;-65
2022/04/30 03:47:51;;;;;;;7.65;4.55;;;;;;;7.90;96.62;101037.25;5590076;31;34091;-64
2022/04/30 03:50:55;;;;;;;7.65;4.20;;;;;;;7.83;97.76;101045.75;5590033;31;34245;-64
2022/04/30 03:53:57;;;;;;;6.45;4.28;;;;;;;7.93;96.69;101037.84;5590404;31;34688;-65
2022/04/30 03:57:00;;;;;;;7.32;4.47;;;;;;;7.90;98.32;101048.66;5589019;31;34146;-64
2022/04/30 04:00:04;;;;;;;7.25;4.28;;;;;;;7.87;97.50;101038.38;5589295;31;32440;-64
2022/04/30 04:03:14;;;;;;;9.00;4.47;;;;;;;7.78;99.05;101045.31;5590066;31;34399;-64
2022/04/30 04:06:18;;;;;;;5.78;4.55;;;;;;;7.83;98.93;101039.63;5590080;31;33974;-65
2022/04/30 04:09:20;;;;;;;10.77;4.40;;;;;;;7.89;100.00;101049.63;5589967;31;34079;-64
2022/04/30 04:12:23;;;;;;;7.72;4.32;;;;;;;7.90;99.68;101051.31;5589173;31;32448;-64
2022/04/30 04:18:51;;;;;;;8.70;4.55;;;;;;;8.01;99.86;101050.37;5589924;31;33853;-64
2022/04/30 04:21:54;;;;;;;7.20;4.45;;;;;;;8.10;98.56;101050.41;5589328;31;34475;-64
2022/04/30 04:28:18;;;;;;;10.40;4.87;;;;;;;8.23;97.96;101045.69;5588612;31;32656;-64
2022/04/30 04:31:22;;;;;;;7.15;4.35;;;;;;;8.24;98.14;101060.59;5589132;31;32284;-65
2022/04/30 04:34:25;;;;;;;7.50;5.15;;;;;;;8.40;96.83;101057.44;5590146;31;34395;-65
2022/04/30 04:37:28;;;;;;;7.43;4.43;;;;;;;8.56;94.52;101057.75;5589670;31;34018;-65
2022/04/30 04:40:30;;;;;;;5.57;3.67;;;;;;;8.56;94.38;101070.13;5589642;31;33810;-65
2022/04/30 04:43:33;;;;;;;7.47;4.45;;;;;;;8.67;93.93;101067.34;5589024;31;33952;-64
2022/04/30 04:46:38;;;;;;;5.55;4.20;;;;;;;8.72;93.69;101065.13;5588423;31;34164;-65
2022/04/30 04:49:42;;;;;;;5.57;4.03;;;;;;;8.87;91.95;101065.53;5588896;31;33599;-65
2022/04/30 04:52:46;;;;;;;6.00;4.37;;;;;;;9.14;92.23;101066.50;5588831;31;34223;-65
2022/04/30 04:55:49;;;;;;;6.43;3.95;;;;;;;9.17;90.64;101065.38;5589285;31;33882;-64
2022/04/30 04:58:52;;;;;;;6.75;4.03;;;;;;;9.35;89.75;101066.28;5589362;31;34030;-64
2022/04/30 05:01:55;;;;;;;7.30;4.15;;;;;;;9.30;90.15;101065.06;5589260;31;33920;-64
2022/04/30 05:04:57;;;;;;;6.40;4.50;;;;;;;9.41;90.31;101071.03;5588562;31;33543;-65
2022/04/30 05:08:00;;;;;;;7.00;4.15;;;;;;;9.47;90.99;101072.28;5589674;31;33970;-64
2022/04/30 05:11:03;;;;;;;6.45;4.30;;;;;;;9.72;89.13;101068.16;5589151;31;34303;-65
2022/04/30 05:14:07;;;;;;;6.00;4.03;;;;;;;9.53;91.70;101072.53;5588572;31;32840;-65
2022/04/30 05:17:10;;;;;;;6.78;4.20;;;;;;;9.76;88.50;101066.88;5588448;31;33419;-65
2022/04/30 05:20:13;;;;;;;7.15;4.12;;;;;;;9.90;85.00;101069.88;5589228;31;35197;-65
2022/04/30 05:23:36;;;;;;;7.10;4.03;;;;;;;9.87;84.14;101070.19;5588862;31;34925;-65
2022/04/30 05:26:39;;;;;;;7.20;3.97;;;;;;;10.11;82.56;101068.81;5588978;31;33963;-65
2022/04/30 05:29:42;;;;;;;6.25;3.97;;;;;;;10.33;82.94;101076.38;5589268;31;33987;-65
2022/04/30 05:32:45;;;;;;;8.20;4.00;;;;;;;10.41;82.25;101069.31;5588024;31;32725;-65
2022/04/30 05:35:47;;;;;;;10.82;4.32;;;;;;;10.64;80.24;101076.88;5588394;31;34383;-66
2022/04/30 05:38:51;;;;;;;5.85;4.15;;;;;;;10.79;77.96;101078.84;5587967;31;33421;-66
2022/04/30 05:41:53;;;;;;;5.82;3.70;;;;;;;10.95;77.11;101072.00;5588730;31;34334;-66
2022/04/30 05:44:56;;;;;;;6.78;4.22;;;;;;;11.08;74.19;101075.94;5589058;31;33956;-65
2022/04/30 05:47:58;;;;;;;6.35;3.92;;;;;;;11.20;73.77;101076.50;5588210;31;32582;-65
2022/04/30 05:51:02;;;;;;;6.40;4.37;;;;;;;11.31;72.92;101076.28;5588807;31;33958;-66
2022/04/30 05:54:05;;;;;;;9.60;4.32;;;;;;;11.57;72.74;101079.75;5587475;31;33851;-65
2022/04/30 05:57:08;;;;;;;6.65;4.03;;;;;;;11.64;72.42;101080.78;5587844;31;32558;-65
2022/04/30 06:00:11;;;;;;;8.13;4.60;;;;;;;11.75;72.24;101079.72;5588825;31;34165;-65
2022/04/30 06:03:14;;;;;;;6.57;3.70;;;;;;;11.92;71.18;101076.12;5588864;31;33925;-65
2022/04/30 06:06:19;;;;;;;7.60;4.60;;;;;;;12.01;69.87;101079.66;5588324;31;34652;-64
2022/04/30 06:09:23;;;;;;;8.13;3.85;;;;;;;12.23;69.31;101079.09;5588397;31;34024;-65
2022/04/30 06:12:25;;;;;;;6.90;4.55;;;;;;;12.33;68.25;101081.63;5587500;31;32556;-64
2022/04/30 06:15:28;;;;;;;9.38;4.68;;;;;;;12.28;66.15;101073.28;5586814;31;33910;-65
2022/04/30 06:18:31;;;;;;;7.00;4.25;;;;;;;12.48;65.82;101072.03;5587486;31;32445;-64
2022/04/30 06:21:34;;;;;;;8.80;4.62;;;;;;;12.35;65.38;101082.28;5587185;31;33387;-64
2022/04/30 06:24:36;;;;;;;5.65;3.97;;;;;;;12.33;65.79;101078.97;5587862;31;34825;-65
2022/04/30 06:27:39;;;;;;;6.55;4.57;;;;;;;12.57;65.10;101073.69;5587401;31;32690;-64
2022/04/30 06:30:42;;;;;;;10.88;4.37;;;;;;;12.78;62.96;101065.25;5587332;31;32891;-64
2022/04/30 06:33:45;;;;;;;6.35;4.40;;;;;;;12.94;63.45;101071.41;5587734;31;34699;-67
2022/04/30 06:36:48;;;;;;;6.43;4.60;;;;;;;12.97;63.94;101079.03;5587292;31;32411;-65
2022/04/30 06:39:51;;;;;;;5.47;4.28;;;;;;;13.40;63.22;101082.41;5587816;31;34060;-64
2022/04/30 06:42:54;;;;;;;6.50;4.00;;;;;;;13.64;61.07;101081.53;5586805;31;32745;-64
2022/04/30 06:45:56;;;;;;;6.22;4.25;;;;;;;13.79;59.84;101074.47;5587091;31;32326;-64
2022/04/30 06:48:59;;;;;;;5.85;4.43;;;;;;;13.85;59.34;101077.28;5590529;31;34626;-64
2022/04/30 06:52:02;;;;;;;9.20;4.05;;;;;;;14.44;59.26;101076.88;5589694;31;32863;-64
2022/04/30 06:58:27;;;;;;;6.30;4.22;;;;;;;14.70;56.08;101069.38;5589808;31;32661;-65
2022/04/30 07:01:43;;;;;;;6.18;3.97;;;;;;;14.85;56.27;101064.09;5589841;31;33259;-64
2022/04/30 07:04:49;;;;;;;7.55;4.25;;;;;;;15.21;53.93;101071.28;5589679;31;32613;-65
2022/04/30 07:07:52;;;;;;;6.68;3.90;;;;;;;16.31;53.28;101063.41;5589696;31;32449;-65
2022/04/30 07:10:54;;;;;;;5.70;3.87;;;;;;;17.19;50.57;101063.03;5590225;31;33871;-65
2022/04/30 07:13:58;;;;;;;6.95;4.05;;;;;;;17.91;48.35;101065.41;5589783;31;34460;-64
2022/04/30 07:17:06;;;;;;;7.30;4.15;;;;;;;18.92;45.47;101069.88;5590462;31;34335;-65
2022/04/30 07:20:09;;;;;;;6.75;4.30;;;;;;;18.40;45.70;101067.84;5589581;31;33261;-65
2022/04/30 07:23:12;;;;;;;7.43;3.50;;;;;;;19.55;44.85;101065.75;5589194;31;32632;-64
2022/04/30 07:26:16;;;;;;;6.37;4.00;;;;;;;19.78;43.39;101059.91;5589134;31;32597;-66
2022/04/30 07:29:19;;;;;;;6.25;3.75;;;;;;;19.73;42.52;101057.00;5588971;31;32634;-65
2022/04/30 07:32:21;;;;;;;4.87;3.20;;;;;;;20.59;41.07;101061.03;5589450;31;32726;-67
2022/04/30 07:35:24;;;;;;;6.20;3.42;;;;;;;20.54;39.62;101055.44;5590231;31;34028;-66
2022/04/30 07:38:27;;;;;;;5.80;3.53;;;;;;;20.78;39.59;101054.66;5589527;31;32343;-67
2022/04/30 07:41:30;;;;;;;5.22;3.47;;;;;;;21.59;38.21;101054.59;5590160;31;33894;-68
2022/04/30 07:44:32;;;;;;;4.87;3.10;;;;;;;20.27;40.52;101054.75;5589823;31;35121;-66
2022/04/30 07:47:35;;;;;;;4.40;3.17;;;;;;;20.44;39.60;101043.47;5590274;31;34151;-65
2022/04/30 07:50:38;;;;;;;5.18;3.40;;;;;;;21.29;37.26;101045.59;5590042;31;35168;-66
2022/04/30 07:53:44;;;;;;;4.65;3.10;;;;;;;22.60;36.12;101045.91;5589148;31;32693;-67
2022/04/30 07:56:47;;;;;;;5.40;3.40;;;;;;;22.13;35.44;101044.88;5588650;31;32752;-65
2022/04/30 07:59:50;;;;;;;4.82;3.35;;;;;;;22.79;34.44;101039.41;5575936;31;32811;-66
2022/04/30 08:02:56;;;;;;;4.43;3.20;;;;;;;23.03;35.00;101051.09;5589039;31;33424;-66
2022/04/30 08:06:00;;;;;;;4.93;3.20;;;;;;;22.48;35.71;101043.16;5588819;31;32688;-67
2022/04/30 08:09:03;;;;;;;4.15;2.90;;;;;;;22.88;33.74;101046.13;5589176;31;32598;-67
2022/04/30 08:12:06;;;;;;;5.05;3.10;;;;;;;21.76;36.00;101037.81;5588989;31;32651;-67
2022/04/30 08:15:09;;;;;;;4.70;2.90;;;;;;;22.44;35.61;101046.56;5588795;31;33682;-67
2022/04/30 08:18:12;;;;;;;4.43;2.72;;;;;;;22.04;35.77;101036.25;5589429;31;34664;-67
2022/04/30 08:21:15;;;;;;;3.72;2.20;;;;;;;23.68;32.03;101046.41;5588729;31;32816;-67
2022/04/30 08:24:18;;;;;;;3.28;2.37;;;;;;;22.92;32.56;101038.38;5588687;31;33338;-67
2022/04/30 08:27:22;;;;;;;4.30;2.25;;;;;;;23.77;31.20;101038.72;5588869;31;32555;-68
2022/04/30 08:30:24;;;;;;;3.60;2.40;;;;;;;23.42;31.96;101038.75;5589569;31;33911;-67
2022/04/30 08:33:28;;;;;;;4.00;2.03;;;;;;;24.38;30.23;101040.84;5589008;31;32557;-67
2022/04/30 08:36:32;;;;;;;2.60;1.98;;;;;;;25.09;29.73;101044.81;5589468;31;33862;-67
2022/04/30 08:39:34;;;;;;;3.75;2.40;;;;;;;26.13;26.30;101044.94;5588748;31;33024;-67
2022/04/30 08:42:37;;;;;;;3.42;2.17;;;;;;;24.61;29.00;101039.88;5589703;31;34640;-67
2022/04/30 08:45:42;;;;;;;5.90;2.33;;;;;;;24.63;28.31;101038.59;5588350;31;32732;-67
2022/04/30 08:48:46;;;;;;;4.53;2.00;;;;;;;25.07;27.29;101039.66;5589147;31;33979;-66
2022/04/30 08:51:54;;;;;;;4.20;2.10;;;;;;;24.65;28.32;101030.19;5576058;31;33477;-66
2022/04/30 08:54:59;;;;;;;3.05;2.20;;;;;;;24.77;29.80;101033.66;5589428;31;34115;-67
2022/04/30 08:58:02;;;;;;;3.67;2.40;;;;;;;25.03;27.88;101024.91;5588255;31;32933;-66
2022/04/30 09:01:12;;;;;;;3.15;2.08;;;;;;;25.78;27.04;101026.28;5589521;31;34689;-66
2022/04/30 09:04:15;;;;;;;4.00;2.25;;;;;;;26.80;27.38;101020.88;5589081;31;34678;-67
2022/04/30 09:07:24;;;;;;;3.40;2.05;;;;;;;27.31;26.85;101024.00;5588272;31;32660;-68
2022/04/30 09:10:29;;;;;;;4.80;2.23;;;;;;;27.01;25.18;101019.19;5587809;31;33422;-67
2022/04/30 09:13:40;;;;;;;2.92;2.30;;;;;;;27.87;24.65;101017.81;5589122;31;34027;-67
2022/04/30 09:16:43;;;;;;;2.85;2.30;;;;;;;27.48;25.14;101011.03;5589193;31;34307;-66
2022/04/30 09:19:47;;;;;;;4.43;2.35;;;;;;;26.53;26.12;101003.78;5588936;31;34279;-67
2022/04/30 09:22:49;;;;;;;3.85;2.37;;;;;;;25.91;25.89;100996.81;5588207;31;32742;-66
2022/04/30 09:25:55;;;;;;;4.35;2.30;;;;;;;26.82;25.58;100991.47;5587810;31;32498;-66
2022/04/30 09:29:02;;;;;;;2.50;2.00;;;;;;;27.77;24.75;100989.66;5587664;31;35130;-66
2022/04/30 09:32:06;;;;;;;4.15;2.20;;;;;;;26.03;27.08;100982.28;5588953;31;33922;-67
2022/04/30 09:38:42;;;;;;;3.22;2.40;;;;;;;27.90;23.98;100981.00;5587822;31;32482;-66
2022/04/30 09:41:46;;;;;;;8.70;2.30;;;;;;;23.40;29.68;100976.72;5588163;31;33399;-67
2022/04/30 09:44:49;;;;;;;3.45;2.45;;;;;;;24.51;29.86;100967.28;5587505;31;33337;-67
2022/04/30 09:47:53;;;;;;;2.60;2.00;;;;;;;25.56;26.99;100965.69;5588048;31;33852;-67
2022/04/30 09:54:17;;;;;;;3.90;2.10;;;;;;;26.88;23.48;100960.53;5587559;31;33699;-68
2022/04/30 09:57:22;;;;;;;3.42;2.05;;;;;;;28.58;22.36;100948.94;5587380;31;33150;-68
2022/04/30 10:00:26;;;;;;;2.72;1.83;;;;;;;29.09;21.88;100947.84;5587048;31;32837;-67
2022/04/30 10:03:30;;;;;;;4.35;2.05;;;;;;;27.84;22.95;100962.97;5588104;31;34006;-68
2022/04/30 10:06:43;;;;;;;2.85;1.87;;;;;;;29.67;20.06;100946.28;5587424;31;32304;-68
2022/04/30 10:10:18;;;;;;;3.03;1.90;;;;;;;30.41;20.26;100944.47;5587560;31;32457;-66
2022/04/30 10:13:47;;;;;;;3.90;1.90;;;;;;;27.81;22.71;100934.34;5587814;31;33323;-66
2022/04/30 10:17:34;;;;;;;2.65;2.10;;;;;;;27.69;22.52;100927.50;5587641;31;33015;-66
2022/04/30 10:20:34;;;;;;;3.08;2.00;;;;;;;28.03;22.11;100917.75;5582383;31;32626;-68
2022/04/30 10:23:36;;;;;;;3.53;1.95;;;;;;;26.03;23.64;100927.88;5590459;31;33886;-67
2022/04/30 10:26:59;;;;;;;2.90;2.05;;;;;;;26.05;23.74;100920.28;5590097;31;32575;-68
2022/04/30 10:30:02;;;;;;;3.12;1.77;;;;;;;25.61;23.60;100930.41;5590637;31;34566;-67
2022/04/30 10:33:07;;;;;;;3.33;2.10;;;;;;;25.19;26.92;100916.50;5589861;31;32662;-66
2022/04/30 10:36:11;;;;;;;3.05;2.00;;;;;;;24.14;27.83;100914.53;5589763;31;36513;-65
2022/04/30 10:39:20;;;;;;;3.53;2.12;;;;;;;23.79;26.70;100906.56;5590619;31;35286;-65
2022/04/30 10:42:30;;;;;;;5.23;2.17;;;;;;;22.84;28.71;100920.50;5589567;31;33949;-66
2022/04/30 10:45:33;;;;;;;4.82;2.10;;;;;;;21.75;28.69;100907.34;5590300;31;34655;-66
2022/04/30 10:48:36;;;;;;;3.78;2.20;;;;;;;22.92;26.83;100906.62;5589357;31;33160;-65
2022/04/30 10:51:41;;;;;;;4.12;2.40;;;;;;;23.77;29.96;100895.97;5590303;31;34054;-65
2022/04/30 10:54:47;;;;;;;3.37;1.98;;;;;;;24.25;26.83;100908.28;5590013;31;32312;-66
2022/04/30 10:57:50;;;;;;;8.65;2.40;;;;;;;24.03;25.24;100899.16;5590470;31;35177;-66
2022/04/30 11:00:52;;;;;;;4.22;2.25;;;;;;;24.05;25.94;100892.44;5589867;31;33295;-66
2022/04/30 11:03:55;;;;;;;4.10;2.60;;;;;;;23.21;26.35;100893.16;5589108;31;33750;-67
2022/04/30 11:07:00;;;;;;;4.72;2.10;;;;;;;22.89;26.87;100884.63;5589789;31;33987;-66
2022/04/30 11:10:06;;;;;;;4.03;1.90;;;;;;;23.02;26.56;100892.47;5589473;31;32556;-66
2022/04/30 11:13:09;;;;;;;2.33;1.87;;;;;;;24.79;26.96;100884.16;5590388;31;34601;-66
2022/04/30 11:16:14;;;;;;;11.30;2.40;;;;;;;26.09;22.14;100886.06;5589481;31;32324;-66
2022/04/30 11:19:21;;;;;;;3.10;1.77;;;;;;;25.66;22.34;100881.56;5590089;31;34126;-66
2022/04/30 11:22:24;;;;;;;2.40;1.80;;;;;;;28.64;21.19;100874.13;5589904;31;33976;-67
2022/04/30 11:25:37;;;;;;;3.05;2.08;;;;;;;30.33;17.52;100879.41;5590152;31;34652;-68
2022/04/30 11:28:39;;;;;;;2.97;1.70;;;;;;;33.05;15.80;100874.03;5576398;31;33137;-67
2022/04/30 11:31:43;;;;;;;3.33;1.80;;;;;;;31.09;16.77;100871.28;5588512;31;32332;-67
2022/04/30 11:34:45;;;;;;;2.50;1.92;;;;;;;31.14;17.71;100863.00;5589946;31;34840;-67
2022/04/30 11:37:49;;;;;;;3.92;1.80;;;;;;;33.70;15.18;100862.75;5589437;31;34168;-68
2022/04/30 11:40:52;;;;;;;2.80;1.85;;;;;;;31.06;16.60;100864.47;5576123;31;32752;-68
2022/04/30 11:43:59;;;;;;;3.40;1.77;;;;;;;33.40;16.09;100861.50;5589866;31;34718;-66
2022/04/30 11:47:06;;;;;;;2.95;1.85;;;;;;;31.39;17.43;100862.69;5588831;31;34267;-68
2022/04/30 11:50:10;;;;;;;2.40;1.70;;;;;;;30.17;18.50;100857.63;5589354;31;32408;-67
2022/04/30 11:53:14;;;;;;;2.50;1.80;;;;;;;28.02;20.48;100854.22;5589924;31;33920;-67
2022/04/30 11:56:17;;;;;;;2.83;2.00;;;;;;;25.53;23.26;100852.84;5589272;31;32392;-66
2022/04/30 11:59:38;;;;;;;2.15;1.80;;;;;;;24.04;24.31;100844.69;5589975;31;34033;-66
2022/04/30 12:02:44;;;;;;;2.70;1.90;;;;;;;24.00;26.32;100840.03;5590006;31;34538;-66
2022/04/30 12:05:52;;;;;;;2.67;1.80;;;;;;;23.89;26.12;100830.88;5589335;31;33660;-65
2022/04/30 12:08:55;;;;;;;6.95;2.10;;;;;;;24.14;25.52;100842.16;5589156;31;32338;-66
2022/04/30 12:12:00;;;;;;;3.75;1.98;;;;;;;23.28;26.48;100828.88;5589772;31;33959;-66
2022/04/30 12:15:03;;;;;;;3.20;2.15;;;;;;;23.70;26.61;100824.03;5589173;31;32483;-66
2022/04/30 12:24:49;;;;;;;4.12;1.87;;;;;;;23.79;26.25;100822.56;5588577;31;33617;-66
2022/04/30 12:27:55;;;;;;;4.72;1.90;;;;;;;24.70;25.47;100824.06;5589060;31;32571;-66
2022/04/30 12:31:15;;;;;;;3.95;2.03;;;;;;;26.15;23.38;100820.56;5588997;31;33223;-66
2022/04/30 12:34:18;;;;;;;2.50;2.03;;;;;;;25.84;24.20;100813.25;5588733;31;32370;-65
2022/04/30 12:37:32;;;;;;;2.37;2.08;;;;;;;27.31;21.74;100816.94;5588705;31;32701;-66
2022/04/30 12:40:49;;;;;;;4.22;2.62;;;;;;;25.56;24.54;100819.78;5589337;31;33995;-67
2022/04/30 12:43:52;;;;;;;2.85;2.08;;;;;;;24.83;24.58;100812.87;5587766;31;33410;-66
2022/04/30 12:46:55;;;;;;;2.37;1.80;;;;;;;23.54;26.39;100817.50;5575910;31;32346;-68
2022/04/30 12:49:58;;;;;;;4.45;2.15;;;;;;;23.60;26.27;100808.41;5588628;31;32566;-66
2022/04/30 12:53:00;;;;;;;2.30;1.98;;;;;;;22.92;27.81;100802.97;5588936;31;33540;-67
2022/04/30 12:56:03;;;;;;;2.92;2.15;;;;;;;22.95;28.20;100799.78;5589498;31;34442;-66
2022/04/30 12:59:07;;;;;;;8.48;2.10;;;;;;;22.79;27.91;100795.12;5588452;31;32949;-66
2022/04/30 13:02:10;;;;;;;2.80;2.20;;;;;;;22.57;28.38;100796.75;5589313;31;33965;-66
2022/04/30 13:05:14;;;;;;;3.45;2.35;;;;;;;22.79;28.72;100784.31;5588567;31;33574;-66
2022/04/30 13:08:17;;;;;;;3.65;2.20;;;;;;;22.12;27.52;100791.09;5589180;31;34261;-66
2022/04/30 13:14:45;;;;;;;4.50;1.90;;;;;;;23.95;25.02;100770.28;5589457;31;34068;-68
2022/04/30 13:17:48;;;;;;;3.40;1.85;;;;;;;29.67;20.03;100768.53;5589309;31;34179;-67
2022/04/30 13:20:51;;;;;;;4.10;1.90;;;;;;;33.68;17.97;100771.47;5589092;31;33954;-67
2022/04/30 13:23:53;;;;;;;2.95;1.98;;;;;;;33.52;15.80;100780.06;5587886;31;34063;-67
2022/04/30 13:26:57;;;;;;;3.83;1.85;;;;;;;33.33;15.16;100768.41;5588960;31;34881;-67
2022/04/30 13:29:59;;;;;;;4.40;1.60;;;;;;;31.28;16.44;100761.66;5589299;31;33948;-67
2022/04/30 13:33:04;;;;;;;3.25;2.15;;;;;;;30.09;18.13;100759.72;5587876;31;32330;-67
2022/04/30 13:36:08;;;;;;;2.67;1.80;;;;;;;29.42;18.34;100757.78;5587962;31;32737;-67
2022/04/30 13:39:12;;;;;;;4.35;1.80;;;;;;;27.78;19.94;100760.38;5588090;31;32939;-67
2022/04/30 13:42:14;;;;;;;3.22;1.90;;;;;;;29.15;20.05;100751.87;5587947;31;32705;-67
2022/04/30 13:45:17;;;;;;;5.28;1.80;;;;;;;30.40;18.30;100745.75;5587909;31;32373;-67
2022/04/30 13:48:20;;;;;;;2.42;1.73;;;;;;;28.03;20.92;100737.75;5587834;31;32739;-67
2022/04/30 13:51:22;;;;;;;2.35;1.67;;;;;;;26.78;22.79;100737.19;5587982;31;32364;-67
2022/04/30 13:54:25;;;;;;;4.87;1.70;;;;;;;25.52;24.54;100743.34;5587782;31;32799;-67
2022/04/30 13:57:29;;;;;;;2.55;1.70;;;;;;;25.23;24.04;100733.81;5589840;31;35755;-67
2022/04/30 14:00:32;;;;;;;2.67;1.83;;;;;;;27.35;23.13;100736.31;5590823;31;34334;-67
2022/04/30 14:03:34;;;;;;;2.50;1.90;;;;;;;27.01;22.08;100725.91;5590464;31;33883;-67
2022/04/30 14:06:37;;;;;;;2.83;1.70;;;;;;;25.49;23.11;100734.91;5590066;31;36096;-67
2022/04/30 14:09:40;;;;;;;3.25;1.90;;;;;;;24.64;25.52;100728.19;5590554;31;33516;-66
2022/04/30 14:16:24;;;;;;;2.55;2.12;;;;;;;26.18;23.83;100716.72;5590615;31;33988;-66
2022/04/30 14:19:27;;;;;;;3.28;1.90;;;;;;;26.74;22.99;100722.47;5589245;31;33281;-64
2022/04/30 14:22:33;;;;;;;1.87;1.60;;;;;;;24.97;24.35;100719.16;5589365;31;32568;-65
2022/04/30 14:25:36;;;;;;;2.70;1.83;;;;;;;23.16;27.25;100719.81;5590322;31;34545;-67
2022/04/30 14:28:40;;;;;;;4.80;2.20;;;;;;;22.73;28.20;100718.44;5590915;31;34591;-65
2022/04/30 14:31:42;;;;;;;2.72;2.03;;;;;;;22.27;28.57;100713.88;5590454;31;34051;-66
2022/04/30 14:34:46;;;;;;;3.28;1.90;;;;;;;22.44;28.76;100704.00;5590044;31;32586;-66
2022/04/30 14:37:49;;;;;;;2.80;1.73;;;;;;;22.38;28.91;100714.94;5589688;31;32543;-65
2022/04/30 14:40:52;;;;;;;3.55;2.30;;;;;;;22.36;29.28;100714.38;5590091;31;34576;-65
2022/04/30 14:43:54;;;;;;;4.10;2.20;;;;;;;22.42;28.49;100705.28;5590342;31;34052;-65
2022/04/30 14:46:57;;;;;;;5.07;1.87;;;;;;;22.22;28.97;100707.56;5589121;31;32562;-65
2022/04/30 14:50:20;;;;;;;4.00;2.00;;;;;;;22.04;29.47;100701.22;5590393;31;33960;-66
2022/04/30 14:53:24;;;;;;;7.03;1.92;;;;;;;21.64;30.34;100702.91;5589715;31;32364;-66
2022/04/30 14:56:26;;;;;;;2.55;1.80;;;;;;;21.60;30.05;100707.13;5590282;31;33989;-66
2022/04/30 14:59:31;;;;;;;4.15;1.90;;;;;;;21.53;29.70;100703.72;5589429;31;32336;-65
2022/04/30 15:02:33;;;;;;;4.97;1.90;;;;;;;21.29;29.11;100696.62;5576287;31;34525;-65
2022/04/30 15:05:36;;;;;;;4.65;1.83;;;;;;;20.93;29.89;100711.81;5589279;31;32847;-65
2022/04/30 15:08:39;;;;;;;3.58;2.00;;;;;;;20.97;29.46;100706.78;5589127;31;34077;-65